sensor_id;sensor_type;location;lat;lon;timestamp;P1;durP1;ratioP1;P2;durP2;ratioP2
53646;SDS011;39550;52.230;5.194;2023-12-22T00:00:06;3.55;;;1.55;;
53646;SDS011;39550;52.230;5.194;2023-12-22T00:02:32;3.45;;;1.60;;
53646;SDS011;39550;52.230;5.194;2023-12-22T00:04:58;3.22;;;1.70;;
53646;SDS011;39550;52.230;5.194;2023-12-22T00:07:23;3.95;;;1.42;;
53646;SDS011;39550;52.230;5.194;2023-12-22T00:09:49;3.95;;;1.80;;
53646;SDS011;39550;52.230;5.194;2023-12-22T00:12:14;4.10;;;1.80;;
53646;SDS011;39550;52.230;5.194;2023-12-22T00:14:39;3.72;;;1.58;;
53646;SDS011;39550;52.230;5.194;2023-12-22T00:17:05;3.97;;;2.05;;
53646;SDS011;39550;52.230;5.194;2023-12-22T00:19:31;4.00;;;1.67;;
53646;SDS011;39550;52.230;5.194;2023-12-22T00:21:56;3.45;;;1.60;;
53646;SDS011;39550;52.230;5.194;2023-12-22T00:24:23;4.60;;;1.95;;
53646;SDS011;39550;52.230;5.194;2023-12-22T00:26:48;3.85;;;1.83;;
53646;SDS011;39550;52.230;5.194;2023-12-22T00:29:13;3.60;;;1.70;;
53646;SDS011;39550;52.230;5.194;2023-12-22T00:31:39;5.63;;;1.80;;
53646;SDS011;39550;52.230;5.194;2023-12-22T00:34:04;2.20;;;1.40;;
53646;SDS011;39550;52.230;5.194;2023-12-22T00:36:30;3.83;;;1.50;;
53646;SDS011;39550;52.230;5.194;2023-12-22T00:38:55;3.92;;;1.73;;
53646;SDS011;39550;52.230;5.194;2023-12-22T00:41:20;3.28;;;1.48;;
53646;SDS011;39550;52.230;5.194;2023-12-22T00:43:46;3.00;;;1.60;;
53646;SDS011;39550;52.230;5.194;2023-12-22T00:46:11;3.80;;;1.80;;
53646;SDS011;39550;52.230;5.194;2023-12-22T00:48:38;4.18;;;1.60;;
53646;SDS011;39550;52.230;5.194;2023-12-22T00:51:03;2.72;;;1.58;;
53646;SDS011;39550;52.230;5.194;2023-12-22T00:53:31;3.03;;;1.58;;
53646;SDS011;39550;52.230;5.194;2023-12-22T00:55:56;3.42;;;1.88;;
53646;SDS011;39550;52.230;5.194;2023-12-22T00:58:21;3.47;;;1.60;;
53646;SDS011;39550;52.230;5.194;2023-12-22T01:00:46;3.45;;;1.60;;
53646;SDS011;39550;52.230;5.194;2023-12-22T01:03:12;3.70;;;1.77;;
53646;SDS011;39550;52.230;5.194;2023-12-22T01:05:38;4.43;;;1.63;;
53646;SDS011;39550;52.230;5.194;2023-12-22T01:08:04;4.05;;;1.73;;
53646;SDS011;39550;52.230;5.194;2023-12-22T01:10:30;2.38;;;1.40;;
53646;SDS011;39550;52.230;5.194;2023-12-22T01:12:55;3.50;;;1.77;;
53646;SDS011;39550;52.230;5.194;2023-12-22T01:15:20;5.05;;;1.80;;
53646;SDS011;39550;52.230;5.194;2023-12-22T01:17:46;2.78;;;1.50;;
53646;SDS011;39550;52.230;5.194;2023-12-22T01:20:11;2.53;;;1.40;;
53646;SDS011;39550;52.230;5.194;2023-12-22T01:22:36;3.40;;;1.58;;
53646;SDS011;39550;52.230;5.194;2023-12-22T01:25:03;3.25;;;1.40;;
53646;SDS011;39550;52.230;5.194;2023-12-22T01:27:30;4.63;;;1.70;;
53646;SDS011;39550;52.230;5.194;2023-12-22T01:29:55;3.67;;;1.73;;
53646;SDS011;39550;52.230;5.194;2023-12-22T01:32:21;2.80;;;1.50;;
53646;SDS011;39550;52.230;5.194;2023-12-22T01:34:46;2.50;;;1.48;;
53646;SDS011;39550;52.230;5.194;2023-12-22T01:37:12;3.83;;;1.67;;
53646;SDS011;39550;52.230;5.194;2023-12-22T01:39:37;3.78;;;1.63;;
53646;SDS011;39550;52.230;5.194;2023-12-22T01:42:02;3.28;;;1.90;;
53646;SDS011;39550;52.230;5.194;2023-12-22T01:44:28;3.00;;;1.42;;
53646;SDS011;39550;52.230;5.194;2023-12-22T01:46:53;4.30;;;1.73;;
53646;SDS011;39550;52.230;5.194;2023-12-22T01:49:19;2.83;;;1.58;;
53646;SDS011;39550;52.230;5.194;2023-12-22T01:51:46;2.58;;;1.45;;
53646;SDS011;39550;52.230;5.194;2023-12-22T01:54:11;3.10;;;1.50;;
53646;SDS011;39550;52.230;5.194;2023-12-22T01:56:39;3.17;;;1.60;;
53646;SDS011;39550;52.230;5.194;2023-12-22T01:59:05;2.35;;;1.48;;
53646;SDS011;39550;52.230;5.194;2023-12-22T02:01:31;4.35;;;1.73;;
53646;SDS011;39550;52.230;5.194;2023-12-22T02:03:58;3.47;;;1.60;;
53646;SDS011;39550;52.230;5.194;2023-12-22T02:06:24;3.30;;;1.52;;
53646;SDS011;39550;52.230;5.194;2023-12-22T02:08:50;3.97;;;2.10;;
53646;SDS011;39550;52.230;5.194;2023-12-22T02:11:15;3.35;;;1.52;;
53646;SDS011;39550;52.230;5.194;2023-12-22T02:13:41;2.95;;;1.70;;
53646;SDS011;39550;52.230;5.194;2023-12-22T02:18:58;3.72;;;1.70;;
53646;SDS011;39550;52.230;5.194;2023-12-22T02:21:27;3.50;;;1.60;;
53646;SDS011;39550;52.230;5.194;2023-12-22T02:23:52;5.15;;;1.65;;
53646;SDS011;39550;52.230;5.194;2023-12-22T02:26:33;3.05;;;1.63;;
53646;SDS011;39550;52.230;5.194;2023-12-22T02:29:07;4.50;;;1.80;;
53646;SDS011;39550;52.230;5.194;2023-12-22T02:31:37;3.75;;;1.70;;
53646;SDS011;39550;52.230;5.194;2023-12-22T02:34:10;3.72;;;1.50;;
53646;SDS011;39550;52.230;5.194;2023-12-22T02:36:39;4.25;;;1.63;;
53646;SDS011;39550;52.230;5.194;2023-12-22T02:39:06;2.88;;;1.60;;
53646;SDS011;39550;52.230;5.194;2023-12-22T02:41:33;4.47;;;1.80;;
53646;SDS011;39550;52.230;5.194;2023-12-22T02:43:59;3.40;;;1.80;;
53646;SDS011;39550;52.230;5.194;2023-12-22T02:46:25;4.78;;;1.70;;
53646;SDS011;39550;52.230;5.194;2023-12-22T02:48:51;3.70;;;1.75;;
53646;SDS011;39550;52.230;5.194;2023-12-22T02:51:16;2.80;;;1.70;;
53646;SDS011;39550;52.230;5.194;2023-12-22T02:53:41;3.88;;;1.60;;
53646;SDS011;39550;52.230;5.194;2023-12-22T02:56:07;3.05;;;1.60;;
53646;SDS011;39550;52.230;5.194;2023-12-22T02:58:32;5.28;;;1.75;;
53646;SDS011;39550;52.230;5.194;2023-12-22T03:00:57;4.30;;;1.70;;
53646;SDS011;39550;52.230;5.194;2023-12-22T03:03:22;4.60;;;1.92;;
53646;SDS011;39550;52.230;5.194;2023-12-22T03:05:48;3.28;;;1.55;;
53646;SDS011;39550;52.230;5.194;2023-12-22T03:08:13;4.10;;;1.98;;
53646;SDS011;39550;52.230;5.194;2023-12-22T03:10:38;4.95;;;2.10;;
53646;SDS011;39550;52.230;5.194;2023-12-22T03:13:04;4.35;;;1.80;;
53646;SDS011;39550;52.230;5.194;2023-12-22T03:15:29;4.35;;;1.65;;
53646;SDS011;39550;52.230;5.194;2023-12-22T03:17:54;3.40;;;1.77;;
53646;SDS011;39550;52.230;5.194;2023-12-22T03:20:20;4.80;;;1.70;;
53646;SDS011;39550;52.230;5.194;2023-12-22T03:22:45;3.75;;;1.65;;
53646;SDS011;39550;52.230;5.194;2023-12-22T03:25:10;4.90;;;1.80;;
53646;SDS011;39550;52.230;5.194;2023-12-22T03:27:35;4.90;;;1.90;;
53646;SDS011;39550;52.230;5.194;2023-12-22T03:30:01;3.65;;;1.90;;
53646;SDS011;39550;52.230;5.194;2023-12-22T03:32:27;3.95;;;1.85;;
53646;SDS011;39550;52.230;5.194;2023-12-22T03:34:52;4.93;;;1.90;;
53646;SDS011;39550;52.230;5.194;2023-12-22T03:37:17;3.88;;;1.77;;
53646;SDS011;39550;52.230;5.194;2023-12-22T03:39:43;5.20;;;1.80;;
53646;SDS011;39550;52.230;5.194;2023-12-22T03:42:08;4.18;;;1.70;;
53646;SDS011;39550;52.230;5.194;2023-12-22T03:44:33;3.15;;;1.70;;
53646;SDS011;39550;52.230;5.194;2023-12-22T03:46:58;4.82;;;1.67;;
53646;SDS011;39550;52.230;5.194;2023-12-22T03:49:24;4.53;;;1.80;;
53646;SDS011;39550;52.230;5.194;2023-12-22T03:51:49;4.25;;;1.90;;
53646;SDS011;39550;52.230;5.194;2023-12-22T03:54:14;3.60;;;1.75;;
53646;SDS011;39550;52.230;5.194;2023-12-22T03:56:42;4.43;;;2.08;;
53646;SDS011;39550;52.230;5.194;2023-12-22T03:59:07;2.58;;;1.48;;
53646;SDS011;39550;52.230;5.194;2023-12-22T04:01:33;3.65;;;1.83;;
53646;SDS011;39550;52.230;5.194;2023-12-22T04:03:58;3.65;;;1.60;;
53646;SDS011;39550;52.230;5.194;2023-12-22T04:06:23;4.43;;;1.70;;
53646;SDS011;39550;52.230;5.194;2023-12-22T04:08:48;3.33;;;1.52;;
53646;SDS011;39550;52.230;5.194;2023-12-22T04:11:14;3.75;;;1.70;;
53646;SDS011;39550;52.230;5.194;2023-12-22T04:13:39;4.10;;;1.60;;
53646;SDS011;39550;52.230;5.194;2023-12-22T04:16:04;4.05;;;1.65;;
53646;SDS011;39550;52.230;5.194;2023-12-22T04:18:30;4.10;;;1.70;;
53646;SDS011;39550;52.230;5.194;2023-12-22T04:20:56;3.13;;;1.50;;
53646;SDS011;39550;52.230;5.194;2023-12-22T04:23:21;3.78;;;1.60;;
53646;SDS011;39550;52.230;5.194;2023-12-22T04:25:47;3.47;;;2.00;;
53646;SDS011;39550;52.230;5.194;2023-12-22T04:28:12;3.22;;;1.58;;
53646;SDS011;39550;52.230;5.194;2023-12-22T04:30:38;3.97;;;2.05;;
53646;SDS011;39550;52.230;5.194;2023-12-22T04:33:03;4.03;;;1.83;;
53646;SDS011;39550;52.230;5.194;2023-12-22T04:35:29;5.25;;;2.25;;
53646;SDS011;39550;52.230;5.194;2023-12-22T04:37:54;3.85;;;1.73;;
53646;SDS011;39550;52.230;5.194;2023-12-22T04:40:19;3.28;;;1.70;;
53646;SDS011;39550;52.230;5.194;2023-12-22T04:42:45;3.05;;;1.60;;
53646;SDS011;39550;52.230;5.194;2023-12-22T04:45:10;3.70;;;1.75;;
53646;SDS011;39550;52.230;5.194;2023-12-22T04:47:35;3.90;;;1.80;;
53646;SDS011;39550;52.230;5.194;2023-12-22T04:50:00;3.60;;;1.50;;
53646;SDS011;39550;52.230;5.194;2023-12-22T04:52:26;6.15;;;2.17;;
53646;SDS011;39550;52.230;5.194;2023-12-22T04:54:51;6.13;;;2.20;;
53646;SDS011;39550;52.230;5.194;2023-12-22T04:57:16;6.63;;;1.90;;
53646;SDS011;39550;52.230;5.194;2023-12-22T04:59:42;6.95;;;1.83;;
53646;SDS011;39550;52.230;5.194;2023-12-22T05:02:07;4.97;;;2.35;;
53646;SDS011;39550;52.230;5.194;2023-12-22T05:04:32;5.18;;;2.35;;
53646;SDS011;39550;52.230;5.194;2023-12-22T05:06:58;7.40;;;2.40;;
53646;SDS011;39550;52.230;5.194;2023-12-22T05:09:23;7.90;;;2.08;;
53646;SDS011;39550;52.230;5.194;2023-12-22T05:11:50;6.43;;;2.10;;
53646;SDS011;39550;52.230;5.194;2023-12-22T05:14:15;7.43;;;2.65;;
53646;SDS011;39550;52.230;5.194;2023-12-22T05:16:40;7.00;;;2.65;;
53646;SDS011;39550;52.230;5.194;2023-12-22T05:19:06;7.88;;;2.53;;
53646;SDS011;39550;52.230;5.194;2023-12-22T05:21:31;7.00;;;2.55;;
53646;SDS011;39550;52.230;5.194;2023-12-22T05:23:56;7.22;;;2.72;;
53646;SDS011;39550;52.230;5.194;2023-12-22T05:26:22;4.65;;;2.10;;
53646;SDS011;39550;52.230;5.194;2023-12-22T05:28:47;7.28;;;2.58;;
53646;SDS011;39550;52.230;5.194;2023-12-22T05:31:14;9.32;;;2.72;;
53646;SDS011;39550;52.230;5.194;2023-12-22T05:33:40;7.57;;;2.88;;
53646;SDS011;39550;52.230;5.194;2023-12-22T05:36:06;8.45;;;2.42;;
53646;SDS011;39550;52.230;5.194;2023-12-22T05:38:31;7.97;;;2.50;;
53646;SDS011;39550;52.230;5.194;2023-12-22T05:40:57;8.02;;;2.30;;
53646;SDS011;39550;52.230;5.194;2023-12-22T05:43:22;5.93;;;2.47;;
53646;SDS011;39550;52.230;5.194;2023-12-22T05:45:48;6.68;;;2.42;;
53646;SDS011;39550;52.230;5.194;2023-12-22T05:48:13;6.00;;;2.70;;
53646;SDS011;39550;52.230;5.194;2023-12-22T05:50:38;7.63;;;2.60;;
53646;SDS011;39550;52.230;5.194;2023-12-22T05:53:04;9.05;;;3.30;;
53646;SDS011;39550;52.230;5.194;2023-12-22T05:55:29;7.63;;;3.20;;
53646;SDS011;39550;52.230;5.194;2023-12-22T05:57:55;8.27;;;2.70;;
53646;SDS011;39550;52.230;5.194;2023-12-22T06:00:20;7.45;;;2.33;;
53646;SDS011;39550;52.230;5.194;2023-12-22T06:02:46;6.07;;;2.50;;
53646;SDS011;39550;52.230;5.194;2023-12-22T06:05:11;6.97;;;2.60;;
53646;SDS011;39550;52.230;5.194;2023-12-22T06:07:36;6.70;;;2.95;;
53646;SDS011;39550;52.230;5.194;2023-12-22T06:10:02;7.28;;;2.30;;
53646;SDS011;39550;52.230;5.194;2023-12-22T06:12:27;6.38;;;2.28;;
53646;SDS011;39550;52.230;5.194;2023-12-22T06:14:52;6.68;;;2.42;;
53646;SDS011;39550;52.230;5.194;2023-12-22T06:17:18;8.10;;;2.60;;
53646;SDS011;39550;52.230;5.194;2023-12-22T06:19:43;7.43;;;2.30;;
53646;SDS011;39550;52.230;5.194;2023-12-22T06:22:09;6.82;;;2.35;;
53646;SDS011;39550;52.230;5.194;2023-12-22T06:24:35;5.43;;;2.30;;
53646;SDS011;39550;52.230;5.194;2023-12-22T06:27:01;7.13;;;2.65;;
53646;SDS011;39550;52.230;5.194;2023-12-22T06:29:26;7.65;;;3.10;;
53646;SDS011;39550;52.230;5.194;2023-12-22T06:31:51;5.97;;;2.53;;
53646;SDS011;39550;52.230;5.194;2023-12-22T06:34:17;6.03;;;2.00;;
53646;SDS011;39550;52.230;5.194;2023-12-22T06:36:42;9.27;;;2.50;;
53646;SDS011;39550;52.230;5.194;2023-12-22T06:39:08;5.00;;;2.20;;
53646;SDS011;39550;52.230;5.194;2023-12-22T06:41:33;6.07;;;2.50;;
53646;SDS011;39550;52.230;5.194;2023-12-22T06:43:58;7.80;;;3.15;;
53646;SDS011;39550;52.230;5.194;2023-12-22T06:46:27;6.90;;;2.08;;
53646;SDS011;39550;52.230;5.194;2023-12-22T06:48:54;7.78;;;2.92;;
53646;SDS011;39550;52.230;5.194;2023-12-22T06:51:24;7.50;;;2.85;;
53646;SDS011;39550;52.230;5.194;2023-12-22T06:53:54;8.88;;;3.20;;
53646;SDS011;39550;52.230;5.194;2023-12-22T06:56:23;7.50;;;3.13;;
53646;SDS011;39550;52.230;5.194;2023-12-22T06:58:50;8.98;;;2.85;;
53646;SDS011;39550;52.230;5.194;2023-12-22T07:01:20;7.45;;;2.53;;
53646;SDS011;39550;52.230;5.194;2023-12-22T07:03:47;7.47;;;2.50;;
53646;SDS011;39550;52.230;5.194;2023-12-22T07:06:13;7.38;;;2.50;;
53646;SDS011;39550;52.230;5.194;2023-12-22T07:08:42;7.45;;;2.58;;
53646;SDS011;39550;52.230;5.194;2023-12-22T07:11:09;8.43;;;3.20;;
53646;SDS011;39550;52.230;5.194;2023-12-22T07:13:34;6.57;;;2.95;;
53646;SDS011;39550;52.230;5.194;2023-12-22T07:16:00;8.32;;;2.45;;
53646;SDS011;39550;52.230;5.194;2023-12-22T07:18:27;9.40;;;3.28;;
53646;SDS011;39550;52.230;5.194;2023-12-22T07:20:55;7.50;;;2.72;;
53646;SDS011;39550;52.230;5.194;2023-12-22T07:23:21;8.32;;;2.80;;
53646;SDS011;39550;52.230;5.194;2023-12-22T07:25:47;9.43;;;2.95;;
53646;SDS011;39550;52.230;5.194;2023-12-22T07:28:13;8.48;;;2.47;;
53646;SDS011;39550;52.230;5.194;2023-12-22T07:30:38;9.27;;;3.67;;
53646;SDS011;39550;52.230;5.194;2023-12-22T07:33:03;6.53;;;2.63;;
53646;SDS011;39550;52.230;5.194;2023-12-22T07:35:29;8.38;;;2.72;;
53646;SDS011;39550;52.230;5.194;2023-12-22T07:37:54;8.25;;;2.70;;
53646;SDS011;39550;52.230;5.194;2023-12-22T07:40:19;8.50;;;2.90;;
53646;SDS011;39550;52.230;5.194;2023-12-22T07:42:45;8.30;;;2.72;;
53646;SDS011;39550;52.230;5.194;2023-12-22T07:45:10;5.88;;;2.45;;
53646;SDS011;39550;52.230;5.194;2023-12-22T07:47:36;6.50;;;2.50;;
53646;SDS011;39550;52.230;5.194;2023-12-22T07:50:02;7.28;;;2.65;;
53646;SDS011;39550;52.230;5.194;2023-12-22T07:52:28;8.85;;;2.70;;
53646;SDS011;39550;52.230;5.194;2023-12-22T07:54:53;6.30;;;2.42;;
53646;SDS011;39550;52.230;5.194;2023-12-22T07:57:19;11.23;;;3.15;;
53646;SDS011;39550;52.230;5.194;2023-12-22T07:59:44;7.70;;;2.88;;
53646;SDS011;39550;52.230;5.194;2023-12-22T08:02:09;7.75;;;3.10;;
53646;SDS011;39550;52.230;5.194;2023-12-22T08:04:34;6.03;;;2.50;;
53646;SDS011;39550;52.230;5.194;2023-12-22T08:07:00;5.80;;;2.47;;
53646;SDS011;39550;52.230;5.194;2023-12-22T08:09:25;5.97;;;2.45;;
53646;SDS011;39550;52.230;5.194;2023-12-22T08:11:50;6.88;;;2.75;;
53646;SDS011;39550;52.230;5.194;2023-12-22T08:14:18;8.75;;;2.55;;
53646;SDS011;39550;52.230;5.194;2023-12-22T08:16:44;10.90;;;3.03;;
53646;SDS011;39550;52.230;5.194;2023-12-22T08:19:09;9.98;;;2.53;;
53646;SDS011;39550;52.230;5.194;2023-12-22T08:21:35;10.32;;;2.60;;
53646;SDS011;39550;52.230;5.194;2023-12-22T08:24:00;5.15;;;1.90;;
53646;SDS011;39550;52.230;5.194;2023-12-22T08:26:25;9.15;;;2.40;;
53646;SDS011;39550;52.230;5.194;2023-12-22T08:28:51;11.75;;;2.50;;
53646;SDS011;39550;52.230;5.194;2023-12-22T08:31:16;7.30;;;2.88;;
53646;SDS011;39550;52.230;5.194;2023-12-22T08:33:41;6.45;;;2.53;;
53646;SDS011;39550;52.230;5.194;2023-12-22T08:36:08;5.43;;;1.98;;
53646;SDS011;39550;52.230;5.194;2023-12-22T08:38:34;4.00;;;2.25;;
53646;SDS011;39550;52.230;5.194;2023-12-22T08:40:59;4.43;;;2.20;;
53646;SDS011;39550;52.230;5.194;2023-12-22T08:43:24;4.60;;;1.85;;
53646;SDS011;39550;52.230;5.194;2023-12-22T08:45:50;6.05;;;2.25;;
53646;SDS011;39550;52.230;5.194;2023-12-22T08:48:15;5.75;;;2.05;;
53646;SDS011;39550;52.230;5.194;2023-12-22T08:50:40;3.88;;;1.85;;
53646;SDS011;39550;52.230;5.194;2023-12-22T08:53:05;6.22;;;2.00;;
53646;SDS011;39550;52.230;5.194;2023-12-22T08:55:31;3.97;;;1.80;;
53646;SDS011;39550;52.230;5.194;2023-12-22T08:57:56;5.60;;;2.10;;
53646;SDS011;39550;52.230;5.194;2023-12-22T09:00:21;7.40;;;1.92;;
53646;SDS011;39550;52.230;5.194;2023-12-22T09:02:47;4.22;;;2.00;;
53646;SDS011;39550;52.230;5.194;2023-12-22T09:05:12;3.72;;;1.80;;
53646;SDS011;39550;52.230;5.194;2023-12-22T09:07:38;4.75;;;1.77;;
53646;SDS011;39550;52.230;5.194;2023-12-22T09:10:04;5.70;;;1.95;;
53646;SDS011;39550;52.230;5.194;2023-12-22T09:12:30;5.07;;;2.10;;
53646;SDS011;39550;52.230;5.194;2023-12-22T09:14:55;5.55;;;2.08;;
53646;SDS011;39550;52.230;5.194;2023-12-22T09:17:20;5.32;;;1.80;;
53646;SDS011;39550;52.230;5.194;2023-12-22T09:19:45;4.70;;;2.00;;
53646;SDS011;39550;52.230;5.194;2023-12-22T09:22:11;3.92;;;1.70;;
53646;SDS011;39550;52.230;5.194;2023-12-22T09:24:37;4.80;;;1.88;;
53646;SDS011;39550;52.230;5.194;2023-12-22T09:27:03;3.83;;;1.73;;
53646;SDS011;39550;52.230;5.194;2023-12-22T09:29:29;2.75;;;1.80;;
53646;SDS011;39550;52.230;5.194;2023-12-22T09:31:56;3.72;;;1.98;;
53646;SDS011;39550;52.230;5.194;2023-12-22T09:34:22;5.38;;;2.05;;
53646;SDS011;39550;52.230;5.194;2023-12-22T09:36:48;2.65;;;1.50;;
53646;SDS011;39550;52.230;5.194;2023-12-22T09:39:13;4.65;;;1.80;;
53646;SDS011;39550;52.230;5.194;2023-12-22T09:41:42;12.60;;;4.45;;
53646;SDS011;39550;52.230;5.194;2023-12-22T09:44:12;3.47;;;1.70;;
53646;SDS011;39550;52.230;5.194;2023-12-22T09:46:39;4.72;;;2.00;;
53646;SDS011;39550;52.230;5.194;2023-12-22T09:49:05;3.72;;;1.83;;
53646;SDS011;39550;52.230;5.194;2023-12-22T09:51:32;3.47;;;1.70;;
53646;SDS011;39550;52.230;5.194;2023-12-22T09:53:59;4.53;;;1.80;;
53646;SDS011;39550;52.230;5.194;2023-12-22T09:56:27;6.43;;;2.13;;
53646;SDS011;39550;52.230;5.194;2023-12-22T09:58:54;5.30;;;1.83;;
53646;SDS011;39550;52.230;5.194;2023-12-22T10:01:21;7.00;;;2.20;;
53646;SDS011;39550;52.230;5.194;2023-12-22T10:03:47;6.65;;;2.63;;
53646;SDS011;39550;52.230;5.194;2023-12-22T10:06:13;5.75;;;2.20;;
53646;SDS011;39550;52.230;5.194;2023-12-22T10:08:39;3.05;;;1.58;;
53646;SDS011;39550;52.230;5.194;2023-12-22T10:11:04;5.22;;;1.80;;
53646;SDS011;39550;52.230;5.194;2023-12-22T10:13:31;3.55;;;2.08;;
53646;SDS011;39550;52.230;5.194;2023-12-22T10:16:00;4.35;;;2.08;;
53646;SDS011;39550;52.230;5.194;2023-12-22T10:18:27;9.88;;;4.82;;
53646;SDS011;39550;52.230;5.194;2023-12-22T10:20:53;5.75;;;2.53;;
53646;SDS011;39550;52.230;5.194;2023-12-22T10:23:19;5.70;;;2.35;;
53646;SDS011;39550;52.230;5.194;2023-12-22T10:25:45;8.80;;;3.90;;
53646;SDS011;39550;52.230;5.194;2023-12-22T10:28:10;11.50;;;4.50;;
53646;SDS011;39550;52.230;5.194;2023-12-22T10:30:36;8.15;;;4.30;;
53646;SDS011;39550;52.230;5.194;2023-12-22T10:33:06;12.43;;;3.90;;
53646;SDS011;39550;52.230;5.194;2023-12-22T10:37:58;13.00;;;5.80;;
53646;SDS011;39550;52.230;5.194;2023-12-22T10:40:24;5.80;;;2.45;;
53646;SDS011;39550;52.230;5.194;2023-12-22T10:42:50;7.53;;;3.53;;
53646;SDS011;39550;52.230;5.194;2023-12-22T10:45:17;7.97;;;3.72;;
53646;SDS011;39550;52.230;5.194;2023-12-22T10:47:43;5.18;;;2.38;;
53646;SDS011;39550;52.230;5.194;2023-12-22T10:50:11;19.70;;;9.80;;
53646;SDS011;39550;52.230;5.194;2023-12-22T10:52:39;9.18;;;4.65;;
53646;SDS011;39550;52.230;5.194;2023-12-22T10:55:04;6.63;;;3.30;;
53646;SDS011;39550;52.230;5.194;2023-12-22T10:57:30;13.82;;;5.95;;
53646;SDS011;39550;52.230;5.194;2023-12-22T11:00:02;5.95;;;3.10;;
53646;SDS011;39550;52.230;5.194;2023-12-22T11:02:30;14.40;;;6.20;;
53646;SDS011;39550;52.230;5.194;2023-12-22T11:07:25;6.25;;;3.00;;
53646;SDS011;39550;52.230;5.194;2023-12-22T11:09:51;9.45;;;4.22;;
53646;SDS011;39550;52.230;5.194;2023-12-22T11:12:19;28.73;;;11.10;;
53646;SDS011;39550;52.230;5.194;2023-12-22T11:14:45;14.73;;;6.63;;
53646;SDS011;39550;52.230;5.194;2023-12-22T11:17:15;8.05;;;3.35;;
53646;SDS011;39550;52.230;5.194;2023-12-22T11:19:44;10.93;;;4.97;;
53646;SDS011;39550;52.230;5.194;2023-12-22T11:22:10;28.58;;;10.07;;
53646;SDS011;39550;52.230;5.194;2023-12-22T11:24:37;21.95;;;9.45;;
53646;SDS011;39550;52.230;5.194;2023-12-22T11:27:03;11.52;;;4.13;;
53646;SDS011;39550;52.230;5.194;2023-12-22T11:29:30;13.50;;;4.90;;
53646;SDS011;39550;52.230;5.194;2023-12-22T11:31:57;12.20;;;5.32;;
53646;SDS011;39550;52.230;5.194;2023-12-22T11:34:25;10.90;;;4.45;;
53646;SDS011;39550;52.230;5.194;2023-12-22T11:36:53;11.48;;;5.80;;
53646;SDS011;39550;52.230;5.194;2023-12-22T11:39:20;10.10;;;3.90;;
53646;SDS011;39550;52.230;5.194;2023-12-22T11:41:45;7.70;;;3.47;;
53646;SDS011;39550;52.230;5.194;2023-12-22T11:44:13;9.25;;;3.80;;
53646;SDS011;39550;52.230;5.194;2023-12-22T11:46:38;9.18;;;3.58;;
53646;SDS011;39550;52.230;5.194;2023-12-22T11:49:04;7.50;;;3.30;;
53646;SDS011;39550;52.230;5.194;2023-12-22T11:51:32;8.20;;;3.30;;
53646;SDS011;39550;52.230;5.194;2023-12-22T11:54:01;7.47;;;3.35;;
53646;SDS011;39550;52.230;5.194;2023-12-22T11:56:27;7.95;;;3.70;;
53646;SDS011;39550;52.230;5.194;2023-12-22T11:58:54;6.68;;;3.00;;
53646;SDS011;39550;52.230;5.194;2023-12-22T12:01:23;7.70;;;2.97;;
53646;SDS011;39550;52.230;5.194;2023-12-22T12:08:50;5.40;;;2.63;;
53646;SDS011;39550;52.230;5.194;2023-12-22T12:11:16;7.63;;;2.60;;
53646;SDS011;39550;52.230;5.194;2023-12-22T12:13:42;7.90;;;2.80;;
53646;SDS011;39550;52.230;5.194;2023-12-22T12:16:10;5.80;;;2.50;;
53646;SDS011;39550;52.230;5.194;2023-12-22T12:18:36;6.22;;;3.10;;
53646;SDS011;39550;52.230;5.194;2023-12-22T12:21:02;14.23;;;6.03;;
53646;SDS011;39550;52.230;5.194;2023-12-22T12:23:28;9.52;;;4.85;;
53646;SDS011;39550;52.230;5.194;2023-12-22T12:25:53;9.68;;;4.38;;
53646;SDS011;39550;52.230;5.194;2023-12-22T12:28:26;9.55;;;4.60;;
53646;SDS011;39550;52.230;5.194;2023-12-22T12:30:57;19.85;;;9.10;;
53646;SDS011;39550;52.230;5.194;2023-12-22T12:33:28;9.02;;;3.53;;
53646;SDS011;39550;52.230;5.194;2023-12-22T12:35:55;4.95;;;2.40;;
53646;SDS011;39550;52.230;5.194;2023-12-22T12:38:30;5.85;;;2.55;;
53646;SDS011;39550;52.230;5.194;2023-12-22T12:41:02;5.20;;;2.50;;
53646;SDS011;39550;52.230;5.194;2023-12-22T12:43:29;5.95;;;2.78;;
53646;SDS011;39550;52.230;5.194;2023-12-22T12:45:54;5.05;;;2.67;;
53646;SDS011;39550;52.230;5.194;2023-12-22T12:48:20;5.70;;;2.60;;
53646;SDS011;39550;52.230;5.194;2023-12-22T12:50:47;4.88;;;2.70;;
53646;SDS011;39550;52.230;5.194;2023-12-22T12:53:12;6.55;;;2.97;;
53646;SDS011;39550;52.230;5.194;2023-12-22T12:55:38;5.50;;;2.70;;
53646;SDS011;39550;52.230;5.194;2023-12-22T12:58:04;5.95;;;2.88;;
53646;SDS011;39550;52.230;5.194;2023-12-22T13:00:30;4.57;;;2.70;;
53646;SDS011;39550;52.230;5.194;2023-12-22T13:03:00;6.43;;;2.25;;
53646;SDS011;39550;52.230;5.194;2023-12-22T13:05:29;5.75;;;2.60;;
53646;SDS011;39550;52.230;5.194;2023-12-22T13:08:11;4.53;;;2.20;;
53646;SDS011;39550;52.230;5.194;2023-12-22T13:10:37;5.57;;;2.13;;
53646;SDS011;39550;52.230;5.194;2023-12-22T13:13:03;4.65;;;2.20;;
53646;SDS011;39550;52.230;5.194;2023-12-22T13:15:29;6.95;;;2.50;;
53646;SDS011;39550;52.230;5.194;2023-12-22T13:17:54;4.00;;;1.95;;
53646;SDS011;39550;52.230;5.194;2023-12-22T13:20:20;4.88;;;2.10;;
53646;SDS011;39550;52.230;5.194;2023-12-22T13:22:45;5.13;;;1.80;;
53646;SDS011;39550;52.230;5.194;2023-12-22T13:25:11;4.05;;;1.92;;
53646;SDS011;39550;52.230;5.194;2023-12-22T13:27:46;5.95;;;2.20;;
53646;SDS011;39550;52.230;5.194;2023-12-22T13:30:13;4.95;;;2.25;;
53646;SDS011;39550;52.230;5.194;2023-12-22T13:32:58;5.82;;;1.80;;
53646;SDS011;39550;52.230;5.194;2023-12-22T13:35:23;4.95;;;1.80;;
53646;SDS011;39550;52.230;5.194;2023-12-22T13:37:49;3.83;;;1.83;;
53646;SDS011;39550;52.230;5.194;2023-12-22T13:40:15;5.38;;;1.98;;
53646;SDS011;39550;52.230;5.194;2023-12-22T13:42:40;4.68;;;1.80;;
53646;SDS011;39550;52.230;5.194;2023-12-22T13:45:11;3.92;;;1.98;;
53646;SDS011;39550;52.230;5.194;2023-12-22T13:47:40;5.90;;;1.92;;
53646;SDS011;39550;52.230;5.194;2023-12-22T13:50:14;3.95;;;1.80;;
53646;SDS011;39550;52.230;5.194;2023-12-22T13:52:41;5.97;;;1.90;;
53646;SDS011;39550;52.230;5.194;2023-12-22T13:55:15;5.63;;;1.83;;
53646;SDS011;39550;52.230;5.194;2023-12-22T13:57:41;4.25;;;1.85;;
53646;SDS011;39550;52.230;5.194;2023-12-22T14:00:28;3.50;;;1.83;;
53646;SDS011;39550;52.230;5.194;2023-12-22T14:02:54;3.22;;;1.55;;
53646;SDS011;39550;52.230;5.194;2023-12-22T14:05:19;4.93;;;1.73;;
53646;SDS011;39550;52.230;5.194;2023-12-22T14:07:45;5.43;;;1.88;;
53646;SDS011;39550;52.230;5.194;2023-12-22T14:10:11;4.55;;;1.73;;
53646;SDS011;39550;52.230;5.194;2023-12-22T14:12:37;4.20;;;1.90;;
53646;SDS011;39550;52.230;5.194;2023-12-22T14:15:12;4.10;;;1.63;;
53646;SDS011;39550;52.230;5.194;2023-12-22T14:17:38;8.30;;;2.00;;
53646;SDS011;39550;52.230;5.194;2023-12-22T14:20:04;4.13;;;1.90;;
53646;SDS011;39550;52.230;5.194;2023-12-22T14:22:30;5.15;;;1.88;;
53646;SDS011;39550;52.230;5.194;2023-12-22T14:24:55;5.13;;;2.00;;
53646;SDS011;39550;52.230;5.194;2023-12-22T14:27:23;4.72;;;2.33;;
53646;SDS011;39550;52.230;5.194;2023-12-22T14:29:48;4.10;;;1.83;;
53646;SDS011;39550;52.230;5.194;2023-12-22T14:32:14;3.72;;;1.60;;
53646;SDS011;39550;52.230;5.194;2023-12-22T14:34:44;3.40;;;1.52;;
53646;SDS011;39550;52.230;5.194;2023-12-22T14:37:10;4.57;;;1.98;;
53646;SDS011;39550;52.230;5.194;2023-12-22T14:39:35;3.70;;;1.60;;
53646;SDS011;39550;52.230;5.194;2023-12-22T14:42:01;3.95;;;1.75;;
53646;SDS011;39550;52.230;5.194;2023-12-22T14:44:28;4.60;;;1.80;;
53646;SDS011;39550;52.230;5.194;2023-12-22T14:46:53;4.35;;;2.03;;
53646;SDS011;39550;52.230;5.194;2023-12-22T14:49:18;5.35;;;2.47;;
53646;SDS011;39550;52.230;5.194;2023-12-22T14:51:44;5.38;;;2.08;;